Terminal Aerodrome Forecast
Issued by NWS Cleveland, OH

Home | Current Version | Previous Version | Text Only | Print | Product List | Glossary Off
Versions: 1 2 3 4 5 6 7 8 9 10 11 12 13 14 15 16 17

000
FTUS41 KCLE 151728
TAFYNG
TAF
KYNG 151728Z 1518/1618 17012KT P6SM BKN120 OVC250
     FM152300 18012G20KT 6SM -RA BR SCT015 OVC025
     FM160100 19012G20KT 3SM -RA BR BKN007 OVC015
     FM160500 23010G20KT P6SM SCT007 OVC015
     FM161100 26015G25KT P6SM BKN015 OVC020=

USA.gov is the U.S. government's official web portal to all federal, state and local government web resources and services.